Time;durP1;ratioP1;P1;durP2;ratioP2;P2;SDS_P1;SDS_P2;PMS_P1;PMS_P2;Temp;Humidity;BMP_temperature;BMP_pressure;BME280_temperature;BME280_humidity;BME280_pressure;Samples;Min_cycle;Max_cycle;Signal;HPM_P1;HPM_P2
2022/06/06 00:02:21;;;;;;;46.23;31.83;;;17.10;99.90;;;;;;5069877;28;20876;-42
2022/06/06 00:04:46;;;;;;;42.53;31.73;;;17.00;99.90;;;;;;5069779;28;20523;-45
2022/06/06 00:07:12;;;;;;;47.77;33.10;;;17.00;99.90;;;;;;5049276;28;20259;-46
2022/06/06 00:09:38;;;;;;;49.63;35.00;;;16.90;99.90;;;;;;5055047;28;20218;-41
2022/06/06 00:12:05;;;;;;;47.33;34.07;;;16.90;99.90;;;;;;5069847;28;20196;-43
2022/06/06 00:14:31;;;;;;;45.57;34.33;;;16.80;99.90;;;;;;5062514;28;20186;-41
2022/06/06 00:16:57;;;;;;;50.50;35.90;;;16.80;99.90;;;;;;5067714;28;20424;-40
2022/06/06 00:19:23;;;;;;;47.50;33.77;;;16.80;99.90;;;;;;5069624;28;20481;-43
2022/06/06 00:21:49;;;;;;;52.63;37.20;;;16.70;99.90;;;;;;5055481;28;20217;-43
2022/06/06 00:24:16;;;;;;;45.50;33.80;;;16.70;99.90;;;;;;5058107;28;20554;-41
2022/06/06 00:26:42;;;;;;;47.30;34.70;;;16.60;99.90;;;;;;5055762;28;20965;-41
2022/06/06 00:29:09;;;;;;;45.30;33.07;;;16.60;99.90;;;;;;5065703;28;20464;-43
2022/06/06 00:37:11;;;;;;;43.53;31.10;;;16.60;99.90;;;;;;5052975;28;20436;-46
2022/06/06 00:39:37;;;;;;;43.03;31.70;;;16.60;99.90;;;;;;5054499;28;20435;-41
2022/06/06 00:42:16;;;;;;;46.30;33.33;;;16.70;99.90;;;;;;5063220;28;20427;-45
2022/06/06 00:44:42;;;;;;;45.17;32.50;;;16.60;99.90;;;;;;5060721;28;20283;-45
2022/06/06 00:47:19;;;;;;;41.87;30.73;;;16.60;99.90;;;;;;5064144;28;20494;-41
2022/06/06 00:49:59;;;;;;;44.70;31.73;;;16.60;99.90;;;;;;5069194;28;20322;-46
2022/06/06 00:52:30;;;;;;;42.70;31.77;;;16.50;99.90;;;;;;5050094;28;20443;-43
2022/06/06 00:55:00;;;;;;;44.60;31.67;;;16.30;99.90;;;;;;5047777;28;20468;-40
2022/06/06 00:57:31;;;;;;;40.30;30.00;;;16.30;99.90;;;;;;5054474;28;20486;-41
2022/06/06 01:00:00;;;;;;;42.20;29.63;;;16.30;99.90;;;;;;5055601;28;20447;-43
2022/06/06 01:02:26;;;;;;;42.73;30.90;;;16.30;99.90;;;;;;5069017;28;20510;-45
2022/06/06 01:04:54;;;;;;;43.20;31.00;;;16.30;99.90;;;;;;5068867;28;20788;-43
2022/06/06 01:07:20;;;;;;;40.70;30.50;;;16.20;99.90;;;;;;5051016;28;20435;-48
2022/06/06 01:09:46;;;;;;;41.47;30.73;;;16.30;99.90;;;;;;5052616;28;20467;-42
2022/06/06 01:12:16;;;;;;;40.20;30.67;;;16.30;99.90;;;;;;5057619;28;20533;-42
2022/06/06 01:14:50;;;;;;;45.93;33.33;;;16.30;99.90;;;;;;5064267;28;20982;-44
2022/06/06 01:17:22;;;;;;;42.70;32.13;;;16.20;99.90;;;;;;5068254;28;20480;-45
2022/06/06 01:20:06;;;;;;;45.70;31.17;;;16.10;99.90;;;;;;5068877;28;20430;-42
2022/06/06 01:22:40;;;;;;;45.87;32.13;;;16.20;99.90;;;;;;5050272;28;20927;-43
2022/06/06 01:25:33;;;;;;;45.60;30.93;;;16.20;99.90;;;;;;5044791;28;20423;-43
2022/06/06 01:28:05;;;;;;;39.10;29.00;;;16.10;99.90;;;;;;5051594;28;20486;-41
2022/06/06 01:30:42;;;;;;;44.37;32.00;;;16.00;99.90;;;;;;5062589;28;20423;-43
2022/06/06 01:33:14;;;;;;;43.80;31.40;;;16.00;99.90;;;;;;5068837;28;20425;-44
2022/06/06 01:35:42;;;;;;;40.10;27.53;;;16.00;99.90;;;;;;5067384;28;20431;-41
2022/06/06 01:38:11;;;;;;;39.50;27.73;;;16.10;99.90;;;;;;5048473;28;20420;-42
2022/06/06 01:40:48;;;;;;;42.03;29.60;;;16.10;99.90;;;;;;5054328;28;20428;-41
2022/06/06 01:43:19;;;;;;;34.97;25.87;;;16.20;99.90;;;;;;5068725;28;20552;-44
2022/06/06 01:45:51;;;;;;;38.93;27.63;;;16.20;99.90;;;;;;5058702;28;20833;-44
2022/06/06 01:48:21;;;;;;;38.97;27.30;;;16.10;99.90;;;;;;5068048;28;20512;-40
2022/06/06 01:50:47;;;;;;;39.43;26.17;;;15.90;99.90;;;;;;5066335;28;20477;-40
2022/06/06 01:53:17;;;;;;;33.93;25.30;;;15.90;99.90;;;;;;5047711;28;20448;-42
2022/06/06 01:55:45;;;;;;;41.97;27.50;;;16.00;99.90;;;;;;5040238;28;20432;-47
2022/06/06 01:58:18;;;;;;;37.90;26.17;;;16.00;99.90;;;;;;5062075;28;20933;-41
2022/06/06 02:00:44;;;;;;;36.70;26.73;;;16.00;99.90;;;;;;5063760;28;20427;-43
2022/06/06 02:03:10;;;;;;;39.23;26.20;;;16.10;99.90;;;;;;5068494;28;20430;-42
2022/06/06 02:05:36;;;;;;;37.07;25.70;;;15.90;99.90;;;;;;5068294;28;20438;-41
2022/06/06 02:08:02;;;;;;;35.30;25.77;;;15.90;99.90;;;;;;5048895;28;20279;-41
2022/06/06 02:10:27;;;;;;;36.13;26.33;;;15.80;99.90;;;;;;5054336;28;20443;-40
2022/06/06 02:12:53;;;;;;;37.30;27.60;;;15.70;99.90;;;;;;5062974;28;20484;-40
2022/06/06 02:15:22;;;;;;;33.43;24.63;;;15.70;99.90;;;;;;5067677;28;20247;-40
2022/06/06 02:17:49;;;;;;;38.07;25.97;;;15.60;99.90;;;;;;5067698;28;20451;-41
2022/06/06 02:20:17;;;;;;;33.17;24.70;;;15.60;99.90;;;;;;5054165;28;20522;-41
2022/06/06 02:22:43;;;;;;;32.00;23.27;;;15.60;99.90;;;;;;5049155;28;20509;-40
2022/06/06 02:25:10;;;;;;;35.97;25.20;;;15.70;99.90;;;;;;5055433;28;20813;-40
2022/06/06 02:27:37;;;;;;;39.67;26.57;;;15.60;99.90;;;;;;5066648;28;20770;-41
2022/06/06 02:30:06;;;;;;;33.20;23.97;;;15.60;99.90;;;;;;5066238;28;20460;-42
2022/06/06 02:32:32;;;;;;;32.23;23.50;;;15.60;99.90;;;;;;5067486;28;20445;-41
2022/06/06 02:34:58;;;;;;;31.63;25.30;;;15.60;99.90;;;;;;5072091;28;20914;-40
2022/06/06 02:37:24;;;;;;;34.67;23.67;;;15.50;99.90;;;;;;5058116;28;20202;-41
2022/06/06 02:39:50;;;;;;;35.73;25.40;;;15.50;99.90;;;;;;5055781;28;20463;-41
2022/06/06 02:42:16;;;;;;;35.47;24.40;;;15.50;99.90;;;;;;5066713;28;20284;-43
2022/06/06 02:44:42;;;;;;;34.67;24.97;;;15.60;99.90;;;;;;5061279;28;20201;-42
2022/06/06 02:47:08;;;;;;;35.33;23.33;;;15.50;99.90;;;;;;5065573;28;20420;-41
2022/06/06 02:49:33;;;;;;;32.27;23.17;;;15.60;99.90;;;;;;5071548;28;20497;-41
2022/06/06 02:52:04;;;;;;;30.33;21.97;;;15.60;99.90;;;;;;5063104;28;20652;-41
2022/06/06 02:54:30;;;;;;;28.83;21.50;;;15.70;99.90;;;;;;5050010;28;20189;-41
2022/06/06 02:56:57;;;;;;;29.53;23.20;;;15.70;99.90;;;;;;5054015;28;20439;-43
2022/06/06 02:59:24;;;;;;;31.40;22.17;;;15.70;99.90;;;;;;5064281;28;20485;-43
2022/06/06 03:01:51;;;;;;;33.17;23.83;;;15.70;99.90;;;;;;5069921;28;20470;-41
2022/06/06 03:04:17;;;;;;;34.93;24.73;;;15.70;99.90;;;;;;5071408;28;20427;-41
2022/06/06 03:07:01;;;;;;;28.00;20.77;;;15.70;99.90;;;;;;5065392;28;20544;-40
2022/06/06 03:09:41;;;;;;;31.23;21.27;;;15.70;99.90;;;;;;5053920;28;20517;-42
2022/06/06 03:12:44;;;;;;;32.83;23.80;;;15.50;99.90;;;;;;5052744;28;20823;-41
2022/06/06 03:15:24;;;;;;;39.93;24.13;;;15.50;99.90;;;;;;5067136;28;20435;-41
2022/06/06 03:21:16;;;;;;;33.70;22.27;;;15.60;99.90;;;;;;5061137;28;20447;-41
2022/06/06 03:24:06;;;;;;;34.07;22.07;;;15.50;99.90;;;;;;5056877;28;20653;-43
2022/06/06 03:26:46;;;;;;;28.60;19.87;;;15.40;99.90;;;;;;5055527;28;20461;-40
2022/06/06 03:29:23;;;;;;;29.07;19.53;;;15.40;99.90;;;;;;5070654;28;20577;-42
2022/06/06 03:32:08;;;;;;;28.53;20.70;;;15.40;99.90;;;;;;5054360;28;20476;-42
2022/06/06 03:35:02;;;;;;;30.33;21.10;;;15.40;99.90;;;;;;5063166;28;20485;-41
2022/06/06 03:37:36;;;;;;;27.97;20.30;;;15.40;99.90;;;;;;5059634;28;20460;-43
2022/06/06 03:40:08;;;;;;;28.83;21.63;;;15.50;99.90;;;;;;5055957;28;20423;-40
2022/06/06 03:43:00;;;;;;;29.37;20.83;;;15.60;99.90;;;;;;5050300;28;20431;-40
2022/06/06 03:45:57;;;;;;;31.47;19.73;;;15.50;99.90;;;;;;5051676;28;20439;-43
2022/06/06 03:48:29;;;;;;;33.47;23.10;;;15.60;99.90;;;;;;5068005;28;20463;-43
2022/06/06 03:51:08;;;;;;;31.40;21.87;;;15.60;99.90;;;;;;5070365;28;20434;-44
2022/06/06 03:54:07;;;;;;;29.70;20.30;;;15.50;99.90;;;;;;5056205;28;20446;-41
2022/06/06 03:56:53;;;;;;;32.73;22.20;;;15.60;99.90;;;;;;5061846;28;20439;-40
2022/06/06 03:59:21;;;;;;;28.13;19.97;;;15.50;99.90;;;;;;5070036;28;20431;-40
2022/06/06 04:01:48;;;;;;;32.07;20.13;;;15.50;99.90;;;;;;5063875;28;20439;-41
2022/06/06 04:04:15;;;;;;;29.97;19.03;;;15.60;99.90;;;;;;5069698;28;20423;-44
2022/06/06 04:06:41;;;;;;;25.20;18.40;;;15.60;99.90;;;;;;5067763;28;20427;-40
2022/06/06 04:09:06;;;;;;;23.80;17.10;;;15.70;99.90;;;;;;5052574;28;20467;-43
2022/06/06 04:11:54;;;;;;;22.93;15.50;;;15.70;99.90;;;;;;5053915;28;21107;-41
2022/06/06 04:14:45;;;;;;;25.60;17.13;;;15.60;99.90;;;;;;5068717;28;20268;-42
2022/06/06 04:17:26;;;;;;;23.43;15.33;;;15.60;99.90;;;;;;5058330;28;20428;-43
2022/06/06 04:19:59;;;;;;;19.23;15.50;;;15.70;99.90;;;;;;5051283;28;20436;-42
2022/06/06 04:22:45;;;;;;;19.63;14.10;;;15.70;99.90;;;;;;5062952;28;20479;-44
2022/06/06 04:25:30;;;;;;;19.30;13.43;;;15.70;99.90;;;;;;5049548;28;20436;-42
2022/06/06 04:28:17;;;;;;;16.73;12.60;;;15.70;99.90;;;;;;5056362;28;20510;-41
2022/06/06 04:31:12;;;;;;;17.03;12.40;;;15.80;99.90;;;;;;5064652;28;20432;-45
2022/06/06 04:34:13;;;;;;;15.63;11.70;;;15.60;99.90;;;;;;5045752;28;20416;-44
2022/06/06 04:36:55;;;;;;;16.20;12.33;;;15.70;99.90;;;;;;5068919;28;20929;-42
2022/06/06 04:39:36;;;;;;;15.63;11.30;;;15.60;99.90;;;;;;5049991;28;20458;-40
2022/06/06 04:42:18;;;;;;;14.40;10.53;;;15.60;99.90;;;;;;5045626;28;20432;-41
2022/06/06 04:44:59;;;;;;;13.97;10.73;;;15.70;99.90;;;;;;5056932;28;20438;-40
2022/06/06 04:47:31;;;;;;;12.23;10.23;;;15.80;99.90;;;;;;5059961;28;20430;-42
2022/06/06 04:50:01;;;;;;;13.60;10.23;;;15.80;99.90;;;;;;5062813;28;20455;-44
2022/06/06 04:52:30;;;;;;;14.30;10.40;;;15.70;99.90;;;;;;5062596;28;20830;-44
2022/06/06 04:54:57;;;;;;;12.27;9.40;;;15.70;99.90;;;;;;5048645;28;20503;-47
2022/06/06 04:57:24;;;;;;;12.10;9.87;;;15.80;99.90;;;;;;5054752;28;20485;-42
2022/06/06 04:59:51;;;;;;;12.90;9.87;;;15.80;99.90;;;;;;5069240;28;20428;-41
2022/06/06 05:02:19;;;;;;;13.97;9.20;;;15.90;99.90;;;;;;5068148;28;20423;-43
2022/06/06 05:04:45;;;;;;;10.90;8.03;;;15.90;99.90;;;;;;5069068;28;20423;-46
2022/06/06 05:07:25;;;;;;;12.57;9.27;;;16.00;99.90;;;;;;5065708;28;20423;-41
2022/06/06 05:10:19;;;;;;;9.87;8.80;;;15.90;99.90;;;;;;5052595;28;20206;-40
2022/06/06 05:13:13;;;;;;;12.37;9.60;;;15.90;99.90;;;;;;5050216;28;20510;-42
2022/06/06 05:15:52;;;;;;;11.00;9.43;;;15.90;99.90;;;;;;5067450;28;20423;-43
2022/06/06 05:18:44;;;;;;;11.07;9.10;;;15.90;99.90;;;;;;5062263;28;20814;-42
2022/06/06 05:21:29;;;;;;;11.07;8.20;;;15.80;99.90;;;;;;5067460;28;21002;-42
2022/06/06 05:24:28;;;;;;;13.87;8.63;;;15.90;99.90;;;;;;5053810;28;20507;-46
2022/06/06 05:27:19;;;;;;;10.80;8.97;;;16.00;99.90;;;;;;5055997;28;20427;-41
2022/06/06 05:30:06;;;;;;;14.50;9.27;;;16.00;99.90;;;;;;5059276;28;20484;-45
2022/06/06 05:32:50;;;;;;;10.20;9.10;;;16.10;99.90;;;;;;5050093;28;20773;-42
2022/06/06 05:35:41;;;;;;;12.57;8.50;;;16.10;99.90;;;;;;5044524;28;20430;-42
2022/06/06 05:38:44;;;;;;;10.57;8.07;;;16.20;99.90;;;;;;5060712;28;21113;-41
2022/06/06 05:41:31;;;;;;;10.07;7.80;;;16.20;99.90;;;;;;5037261;28;20958;-43
2022/06/06 05:44:22;;;;;;;10.23;8.60;;;16.20;99.90;;;;;;5060783;28;20434;-41
2022/06/06 05:47:10;;;;;;;10.93;8.80;;;16.10;99.90;;;;;;5059000;28;20499;-44
2022/06/06 05:50:04;;;;;;;11.30;8.70;;;16.00;99.90;;;;;;5067250;28;20950;-43
2022/06/06 05:52:48;;;;;;;13.20;8.93;;;16.00;99.90;;;;;;5065525;28;20419;-40
2022/06/06 05:55:59;;;;;;;13.17;8.03;;;15.90;99.90;;;;;;5054292;28;20431;-42
2022/06/06 05:58:40;;;;;;;11.80;8.73;;;16.00;99.90;;;;;;5049791;28;20464;-41
2022/06/06 06:01:43;;;;;;;10.30;8.00;;;16.20;99.90;;;;;;5068809;28;20535;-41
2022/06/06 06:04:36;;;;;;;11.20;7.83;;;16.20;99.90;;;;;;5067461;28;20560;-41
2022/06/06 06:07:07;;;;;;;10.40;8.03;;;16.50;99.90;;;;;;5071395;28;20426;-42
2022/06/06 06:09:49;;;;;;;10.43;8.40;;;16.70;99.90;;;;;;5059881;28;20466;-44
2022/06/06 06:12:26;;;;;;;11.23;8.03;;;17.00;99.90;;;;;;5053283;28;20501;-44
2022/06/06 06:15:11;;;;;;;11.10;8.17;;;17.00;99.90;;;;;;5045447;28;20426;-40
2022/06/06 06:17:39;;;;;;;7.50;6.70;;;17.00;99.90;;;;;;5055104;28;20760;-42
2022/06/06 06:20:13;;;;;;;10.27;7.03;;;17.10;99.90;;;;;;5072097;28;20963;-41
2022/06/06 06:23:06;;;;;;;7.30;6.13;;;17.20;99.90;;;;;;5069151;28;20427;-41
2022/06/06 06:25:35;;;;;;;9.17;6.33;;;17.30;99.90;;;;;;5056126;28;20452;-41
2022/06/06 06:28:12;;;;;;;9.60;6.40;;;17.30;99.90;;;;;;5052572;28;20428;-42
2022/06/06 06:31:09;;;;;;;6.83;5.60;;;17.50;99.90;;;;;;5070878;28;20518;-41
2022/06/06 06:33:43;;;;;;;6.10;5.30;;;17.70;99.90;;;;;;5053540;28;20427;-43
2022/06/06 06:36:09;;;;;;;6.63;5.80;;;17.70;99.90;;;;;;5066716;28;20773;-43
2022/06/06 06:38:52;;;;;;;6.27;4.90;;;17.80;99.90;;;;;;5058810;28;20448;-41
2022/06/06 06:41:47;;;;;;;7.40;5.90;;;17.90;99.90;;;;;;5053449;28;20184;-42
2022/06/06 06:44:39;;;;;;;7.03;5.07;;;18.10;99.90;;;;;;5066250;28;20798;-42
2022/06/06 06:47:13;;;;;;;4.97;4.20;;;18.20;99.90;;;;;;5062728;28;20543;-42
2022/06/06 06:49:51;;;;;;;6.77;4.80;;;18.40;99.90;;;;;;5070505;28;20943;-43
2022/06/06 06:52:45;;;;;;;5.70;5.10;;;18.60;99.90;;;;;;5071382;28;20437;-41
2022/06/06 06:55:55;;;;;;;5.03;4.63;;;18.60;99.90;;;;;;5049257;28;21033;-41
2022/06/06 06:58:32;;;;;;;6.47;5.10;;;18.80;99.90;;;;;;5058697;28;20439;-43
2022/06/06 07:01:03;;;;;;;6.10;5.37;;;18.70;99.90;;;;;;5071385;28;20530;-41
2022/06/06 07:10:22;;;;;;;6.07;5.17;;;18.70;99.90;;;;;;5056462;28;20522;-42
2022/06/06 07:13:07;;;;;;;4.70;4.30;;;18.50;99.90;;;;;;5045986;28;20424;-42
2022/06/06 07:15:52;;;;;;;5.30;4.80;;;18.60;99.90;;;;;;5069065;28;20422;-45
2022/06/06 07:18:20;;;;;;;5.63;5.03;;;18.40;99.90;;;;;;5065464;28;20419;-46
2022/06/06 07:20:47;;;;;;;4.43;4.03;;;18.20;99.90;;;;;;5053442;28;20432;-46
2022/06/06 07:23:15;;;;;;;5.33;4.50;;;18.30;99.90;;;;;;5062832;28;20444;-47
2022/06/06 07:25:49;;;;;;;5.63;5.07;;;18.40;99.90;;;;;;5052064;28;21083;-40
2022/06/06 07:28:18;;;;;;;5.10;4.60;;;18.40;99.90;;;;;;5059182;28;21323;-40
2022/06/06 07:30:47;;;;;;;5.63;4.70;;;18.30;99.90;;;;;;5070808;28;20428;-44
2022/06/06 07:33:48;;;;;;;6.30;4.70;;;18.40;99.90;;;;;;5057136;28;20816;-41
2022/06/06 07:36:37;;;;;;;4.67;4.17;;;18.40;99.90;;;;;;5058008;28;20469;-46
2022/06/06 07:39:26;;;;;;;4.73;4.20;;;18.50;99.90;;;;;;5057932;28;20830;-45
2022/06/06 07:41:58;;;;;;;4.63;4.20;;;18.60;99.90;;;;;;5042348;28;20539;-43
2022/06/06 07:44:46;;;;;;;3.17;2.87;;;18.80;99.90;;;;;;5058983;28;20433;-43
2022/06/06 07:47:53;;;;;;;4.60;3.93;;;19.00;99.90;;;;;;5056648;28;20453;-40
2022/06/06 07:50:32;;;;;;;3.20;2.90;;;19.00;99.90;;;;;;5058484;28;20496;-43
2022/06/06 07:53:22;;;;;;;3.67;3.10;;;19.10;99.90;;;;;;5070397;28;20561;-40
2022/06/06 07:56:10;;;;;;;3.97;3.57;;;19.30;99.90;;;;;;5051853;28;20475;-41
2022/06/06 07:59:02;;;;;;;4.37;2.77;;;19.30;99.90;;;;;;5052396;28;20416;-43
2022/06/06 08:01:43;;;;;;;3.37;2.97;;;19.30;99.90;;;;;;5063681;28;20432;-45
2022/06/06 08:04:46;;;;;;;3.07;2.77;;;19.20;99.90;;;;;;5049274;28;20507;-42
2022/06/06 08:07:48;;;;;;;2.93;2.47;;;19.10;99.90;;;;;;5051585;28;20519;-40
2022/06/06 08:10:31;;;;;;;3.13;2.83;;;19.10;99.90;;;;;;5050421;28;20475;-44
2022/06/06 08:13:32;;;;;;;2.70;2.40;;;19.10;99.90;;;;;;5054472;28;20858;-42
2022/06/06 08:16:31;;;;;;;3.23;2.93;;;19.10;99.90;;;;;;5047241;28;20422;-44
2022/06/06 08:19:15;;;;;;;2.50;2.30;;;18.90;99.90;;;;;;5057303;28;21076;-40
2022/06/06 08:21:46;;;;;;;2.60;2.17;;;18.80;99.90;;;;;;5056843;28;20435;-43
2022/06/06 08:24:29;;;;;;;4.70;2.20;;;18.90;99.90;;;;;;5053636;28;20440;-42
2022/06/06 08:26:57;;;;;;;3.77;2.53;;;18.90;99.90;;;;;;5051578;28;20525;-43
2022/06/06 08:29:23;;;;;;;2.73;2.30;;;18.90;99.90;;;;;;5061910;28;20474;-40
2022/06/06 08:31:49;;;;;;;3.30;2.73;;;19.00;99.90;;;;;;5063029;28;20459;-42
2022/06/06 08:34:15;;;;;;;4.23;2.50;;;19.10;99.90;;;;;;5062850;28;20193;-41
2022/06/06 08:37:25;;;;;;;2.93;2.10;;;19.20;99.90;;;;;;5068794;28;20512;-43
2022/06/06 08:39:56;;;;;;;2.60;1.87;;;19.30;99.90;;;;;;5057080;28;20247;-41
2022/06/06 08:42:41;;;;;;;2.47;1.93;;;19.40;99.90;;;;;;5053461;28;20499;-40
2022/06/06 08:45:16;;;;;;;4.13;1.60;;;19.50;99.90;;;;;;5047995;28;20430;-40
2022/06/06 08:48:06;;;;;;;2.00;1.80;;;19.60;99.90;;;;;;5065899;28;20441;-41
2022/06/06 08:50:44;;;;;;;3.10;2.00;;;19.60;99.90;;;;;;5069230;28;20463;-39
2022/06/06 08:53:28;;;;;;;3.67;2.60;;;19.70;99.90;;;;;;5069120;28;20445;-41
2022/06/06 08:56:24;;;;;;;3.07;1.87;;;19.80;99.90;;;;;;5052543;28;20450;-40
2022/06/06 08:59:08;;;;;;;1.90;1.77;;;19.80;99.90;;;;;;5048629;28;20413;-40
2022/06/06 09:02:00;;;;;;;2.50;1.77;;;19.90;99.90;;;;;;5069199;28;20465;-40
2022/06/06 09:04:40;;;;;;;1.30;1.13;;;19.80;99.90;;;;;;5042410;28;20550;-42
2022/06/06 09:07:24;;;;;;;2.20;1.30;;;20.00;99.90;;;;;;5047650;28;20451;-43
2022/06/06 09:10:14;;;;;;;1.80;1.70;;;20.10;99.90;;;;;;5050079;28;21032;-42
2022/06/06 09:12:40;;;;;;;1.93;1.60;;;20.10;99.90;;;;;;5054891;28;20842;-41
2022/06/06 09:15:41;;;;;;;2.67;1.63;;;20.10;99.90;;;;;;5065160;28;20465;-40
2022/06/06 09:18:25;;;;;;;1.87;1.70;;;20.10;99.90;;;;;;5057769;28;20239;-40
2022/06/06 09:21:11;;;;;;;4.03;1.20;;;19.90;99.90;;;;;;5048292;28;20558;-40
2022/06/06 09:24:07;;;;;;;2.80;1.30;;;20.00;99.90;;;;;;5049404;28;20738;-40
2022/06/06 09:27:09;;;;;;;1.57;1.30;;;20.20;99.90;;;;;;5045828;28;20970;-40
2022/06/06 09:30:01;;;;;;;3.33;1.07;;;20.10;99.90;;;;;;5051232;28;20818;-43
2022/06/06 09:32:44;;;;;;;1.03;0.93;;;19.90;99.90;;;;;;5048649;28;20425;-43
2022/06/06 09:35:16;;;;;;;1.63;1.40;;;19.90;99.90;;;;;;5054357;28;20450;-43
2022/06/06 09:37:59;;;;;;;1.40;1.30;;;19.80;99.90;;;;;;5050901;28;20413;-42
2022/06/06 09:40:46;;;;;;;1.03;0.93;;;19.90;99.90;;;;;;5054004;28;20426;-40
2022/06/06 09:43:40;;;;;;;1.80;1.20;;;19.90;99.90;;;;;;5051629;28;20957;-40
2022/06/06 09:46:20;;;;;;;3.60;1.10;;;20.00;99.90;;;;;;5051686;28;20400;-40
2022/06/06 09:49:23;;;;;;;1.17;1.03;;;19.90;99.90;;;;;;5053226;28;20541;-43
2022/06/06 09:52:10;;;;;;;1.80;1.00;;;19.70;99.90;;;;;;5051301;28;20432;-39
2022/06/06 10:00:39;;;;;;;1.40;1.20;;;19.00;99.90;;;;;;5047582;28;20417;-40
2022/06/06 10:03:39;;;;;;;1.73;1.10;;;18.80;99.90;;;;;;5059142;28;20464;-41
2022/06/06 10:06:07;;;;;;;1.70;1.40;;;18.70;99.90;;;;;;5054968;28;20419;-41
2022/06/06 10:09:13;;;;;;;2.73;1.20;;;18.60;99.90;;;;;;5045017;28;20471;-40
2022/06/06 10:11:58;;;;;;;2.50;1.10;;;18.60;99.90;;;;;;5045381;28;20958;-40
2022/06/06 10:14:47;;;;;;;1.57;1.03;;;18.50;99.90;;;;;;5040899;28;20429;-42
2022/06/06 10:17:33;;;;;;;2.73;1.37;;;18.50;99.90;;;;;;5057912;28;20492;-39
2022/06/06 10:20:13;;;;;;;1.47;1.13;;;18.50;99.90;;;;;;5056552;28;20434;-40
2022/06/06 10:23:03;;;;;;;1.33;1.13;;;18.80;99.90;;;;;;5057669;28;20415;-41
2022/06/06 10:25:55;;;;;;;2.77;1.10;;;19.00;99.90;;;;;;5055760;28;20441;-40
2022/06/06 10:28:44;;;;;;;1.60;1.40;;;19.20;99.90;;;;;;5061363;28;20462;-40
2022/06/06 10:31:09;;;;;;;4.40;1.20;;;19.30;99.90;;;;;;5063789;28;20419;-40
2022/06/06 10:33:56;;;;;;;1.13;1.03;;;19.50;99.90;;;;;;5058856;28;20408;-40
2022/06/06 10:36:40;;;;;;;2.20;1.30;;;19.70;99.90;;;;;;5050419;28;20188;-40
2022/06/06 10:39:30;;;;;;;1.70;0.90;;;20.00;99.90;;;;;;5052819;28;20424;-40
2022/06/06 10:42:14;;;;;;;5.73;1.20;;;20.30;99.90;;;;;;5053327;28;20420;-41
2022/06/06 10:45:04;;;;;;;1.70;1.60;;;20.40;99.90;;;;;;5050139;28;20462;-41
2022/06/06 10:47:40;;;;;;;1.93;0.93;;;20.40;99.90;;;;;;5050683;28;20435;-42
2022/06/06 10:50:36;;;;;;;3.53;1.00;;;20.50;99.90;;;;;;5051240;28;20859;-40
2022/06/06 10:53:24;;;;;;;1.43;1.33;;;20.40;99.80;;;;;;5042906;28;20426;-42
2022/06/06 10:56:29;;;;;;;1.20;1.00;;;20.30;99.90;;;;;;5050985;28;20858;-40
2022/06/06 10:59:19;;;;;;;2.20;1.17;;;20.20;99.90;;;;;;5045420;28;20895;-40
2022/06/06 11:01:48;;;;;;;1.20;1.10;;;20.20;99.90;;;;;;5052178;28;20442;-42
2022/06/06 11:04:35;;;;;;;2.10;1.03;;;20.10;99.90;;;;;;5051252;28;20451;-40
2022/06/06 11:07:28;;;;;;;2.13;1.33;;;20.30;99.90;;;;;;5060350;28;20469;-41
2022/06/06 11:10:31;;;;;;;1.13;1.03;;;20.30;99.90;;;;;;5056498;28;20467;-41
2022/06/06 11:12:57;;;;;;;1.07;0.90;;;20.40;99.90;;;;;;5054249;28;20507;-41
2022/06/06 11:15:58;;;;;;;1.37;1.20;;;20.60;99.90;;;;;;5058625;28;20871;-40
2022/06/06 11:18:27;;;;;;;6.20;2.50;;;20.70;99.90;;;;;;5046032;28;20261;-41
2022/06/06 11:21:07;;;;;;;1.30;0.80;;;20.30;99.70;;;;;;5070633;28;20432;-40
2022/06/06 11:23:41;;;;;;;0.80;0.70;;;20.30;99.70;;;;;;5070657;28;20433;-39
2022/06/06 11:26:49;;;;;;;1.40;0.97;;;20.30;99.00;;;;;;5059326;28;20785;-40
2022/06/06 11:29:37;;;;;;;0.90;0.70;;;20.20;99.30;;;;;;5059408;28;20467;-41
2022/06/06 11:32:40;;;;;;;1.63;0.80;;;20.20;99.20;;;;;;5046087;28;20412;-40
2022/06/06 11:35:30;;;;;;;1.63;1.10;;;20.00;99.40;;;;;;5061568;28;20511;-41
2022/06/06 11:38:13;;;;;;;0.73;0.73;;;19.90;99.50;;;;;;5058908;28;20443;-40
2022/06/06 11:40:51;;;;;;;1.07;0.97;;;19.90;99.70;;;;;;5060769;28;20515;-40
2022/06/06 11:43:29;;;;;;;1.00;0.80;;;20.00;99.90;;;;;;5059412;28;20774;-41
2022/06/06 11:46:32;;;;;;;0.90;0.70;;;20.10;99.90;;;;;;5066657;28;20410;-40
2022/06/06 11:49:16;;;;;;;1.30;0.80;;;20.10;99.50;;;;;;5059644;28;20463;-40
2022/06/06 11:52:05;;;;;;;1.10;0.90;;;19.90;99.70;;;;;;5053742;28;20434;-43
2022/06/06 11:54:50;;;;;;;1.20;1.10;;;19.50;99.40;;;;;;5054270;28;20412;-40
2022/06/06 11:57:53;;;;;;;1.00;0.90;;;19.30;99.90;;;;;;5065324;28;20432;-42
2022/06/06 12:00:34;;;;;;;1.43;1.00;;;19.20;99.90;;;;;;5048524;28;20423;-42
2022/06/06 12:04:01;;;;;;;1.50;1.13;;;19.20;99.90;;;;;;5069477;28;20427;-43
2022/06/06 12:06:51;;;;;;;1.80;0.93;;;19.50;99.90;;;;;;5015206;28;20928;-40
2022/06/06 12:09:35;;;;;;;0.80;0.70;;;19.70;99.90;;;;;;5008533;28;20465;-41
2022/06/06 12:12:22;;;;;;;1.40;1.00;;;19.60;99.90;;;;;;5045172;28;20443;-40
2022/06/06 12:15:16;;;;;;;1.53;0.80;;;19.50;99.90;;;;;;5051192;28;20827;-42
2022/06/06 12:18:07;;;;;;;2.33;1.00;;;19.30;99.90;;;;;;5040831;28;20456;-43
2022/06/06 12:20:56;;;;;;;1.80;0.90;;;18.70;99.90;;;;;;5052606;28;20456;-43
2022/06/06 12:23:49;;;;;;;2.23;0.87;;;18.30;99.90;;;;;;5063522;28;20428;-40
2022/06/06 12:26:24;;;;;;;1.50;1.07;;;18.20;99.90;;;;;;5057199;28;20432;-41
2022/06/06 12:29:10;;;;;;;1.93;0.97;;;18.10;99.90;;;;;;5047393;28;20554;-43
2022/06/06 12:31:54;;;;;;;1.50;0.90;;;18.00;99.90;;;;;;5046445;28;20455;-40
2022/06/06 12:34:48;;;;;;;1.10;1.00;;;18.20;99.90;;;;;;5053252;28;20428;-40
2022/06/06 12:37:33;;;;;;;1.10;1.00;;;18.50;99.90;;;;;;5064898;28;20423;-43
2022/06/06 12:40:14;;;;;;;2.93;1.10;;;18.80;99.90;;;;;;5057905;28;20879;-42
2022/06/06 12:43:15;;;;;;;1.57;1.20;;;19.10;99.90;;;;;;5063962;28;20420;-41
2022/06/06 12:45:46;;;;;;;0.90;0.70;;;19.20;99.90;;;;;;5057486;28;20436;-42
2022/06/06 12:48:39;;;;;;;1.80;1.00;;;19.40;99.90;;;;;;5054804;28;20984;-40
2022/06/06 12:51:35;;;;;;;1.83;1.20;;;19.50;99.90;;;;;;5060729;28;21001;-40
2022/06/06 12:54:35;;;;;;;1.80;1.30;;;19.60;99.90;;;;;;5064144;28;20468;-43
2022/06/06 12:57:06;;;;;;;1.80;1.17;;;19.70;99.90;;;;;;5056411;28;20811;-40
2022/06/06 12:59:47;;;;;;;2.10;1.43;;;19.60;99.90;;;;;;5053401;28;20427;-41
2022/06/06 13:02:52;;;;;;;1.77;1.30;;;19.70;99.90;;;;;;5067809;28;20427;-43
2022/06/06 13:05:22;;;;;;;2.23;1.40;;;19.70;99.90;;;;;;5055177;28;20420;-41
2022/06/06 13:07:59;;;;;;;2.33;1.10;;;19.90;99.90;;;;;;5048986;28;20428;-43
2022/06/06 13:10:55;;;;;;;1.47;1.17;;;19.90;99.90;;;;;;5066337;28;20485;-40
2022/06/06 13:13:50;;;;;;;2.00;0.93;;;19.90;99.90;;;;;;5052754;28;20420;-39
2022/06/06 13:16:38;;;;;;;3.60;1.33;;;20.10;99.90;;;;;;5059135;28;20415;-40
2022/06/06 13:19:12;;;;;;;1.60;1.27;;;20.20;99.90;;;;;;5066794;28;20463;-39
2022/06/06 13:21:53;;;;;;;1.30;1.20;;;20.30;99.90;;;;;;5065118;28;20537;-41
2022/06/06 13:24:45;;;;;;;1.40;1.30;;;20.40;99.90;;;;;;5068638;28;20424;-43
2022/06/06 13:27:18;;;;;;;1.80;1.50;;;20.60;99.90;;;;;;5051621;28;20444;-42
2022/06/06 13:29:46;;;;;;;2.70;1.23;;;20.70;99.90;;;;;;5053653;28;20540;-40
2022/06/06 13:32:44;;;;;;;3.23;1.30;;;20.80;99.90;;;;;;5049421;28;21209;-40
2022/06/06 13:35:55;;;;;;;1.33;1.23;;;20.80;99.90;;;;;;5055687;28;20427;-42
2022/06/06 13:38:30;;;;;;;1.60;0.97;;;20.60;99.90;;;;;;5051493;28;20459;-39
2022/06/06 13:41:13;;;;;;;1.50;1.30;;;20.60;99.90;;;;;;5059312;28;20529;-40
2022/06/06 13:43:51;;;;;;;1.30;1.20;;;20.70;99.90;;;;;;5050880;28;21133;-40
2022/06/06 13:46:39;;;;;;;1.30;1.20;;;20.80;99.90;;;;;;5055904;28;20913;-41
2022/06/06 13:49:11;;;;;;;1.10;1.00;;;20.80;99.90;;;;;;5068045;28;20459;-43
2022/06/06 13:52:17;;;;;;;2.10;1.47;;;20.90;99.90;;;;;;5045918;28;20856;-43
2022/06/06 13:54:42;;;;;;;1.70;1.30;;;20.90;99.90;;;;;;5043675;28;20428;-41
2022/06/06 13:57:27;;;;;;;2.17;1.73;;;20.90;99.30;;;;;;5051302;28;20493;-40
2022/06/06 14:00:02;;;;;;;1.10;1.10;;;20.90;99.00;;;;;;5051469;28;20193;-40
2022/06/06 14:02:33;;;;;;;2.13;1.30;;;21.00;99.60;;;;;;5065882;28;20438;-39
2022/06/06 14:05:08;;;;;;;3.40;1.13;;;21.10;99.10;;;;;;5061817;28;20430;-40
2022/06/06 14:07:53;;;;;;;1.50;1.40;;;21.10;99.90;;;;;;5067806;28;20414;-40
2022/06/06 14:10:19;;;;;;;1.53;1.10;;;21.20;99.90;;;;;;5068488;28;20471;-42